Terminal Aerodrome Forecast
Issued by NWS

Home | Current Version | Previous Version | Text Only | Print | Product List | Glossary On
Versions: 1 2 3 4 5 6 7 8 9 10 11 12 13 14 15 16
000
FTUS45 KRIW 201100
TAFBPI
TAF
KBPI 201127Z 2012/2112 14005KT P6SM -SNRA SCT006 OVC025
     FM201400 14006KT P6SM BKN025
     FM201700 15009KT P6SM VCSH BKN035
     FM210000 20008KT P6SM VCSH BKN050=

USA.gov is the U.S. government's official web portal to all federal, state and local government web resources and services.